首页
METAR-TAF:

METAR-TAF

机场 :

哈尔滨太平国际机场

哈尔滨, 中华人民共和国

纬度: 45-45N, 经度: 126-46E, 海拔: 143米

当前天气观测

该预报发布于57分钟前的10:00 UTC
风速8节,风向西南
温度 -13°C
湿度 72%
气压 1018 hPa
能见度10公里或以上
1500米以下无云,无积雨云

METAR: ZYHB 151000Z 22004MPS CAVOK M13/M17 Q1018 NOSIG

时间: 18:57 (10:57 UTC)

预报

该预报发布于7小时和54分钟前的03:03 UTC
预报有效从15日的 06点(UTC)到 16日的 06点(UTC)
风速8节,风向西转西南
能見度: 6000
散云层高于3300英尺

TAF: ZYHB 150303Z 1506/1606 25004MPS 6000 SCT033 TXM06/06Z TNM17/22Z

超过4000个机场的气象观测和天气预报(METAR&TAF报告)。

可查询的气象台以黄色和红色小点在地图上表示。

将鼠标移到小点上方,可查看气象台名称。

然后点击查看天气观测和预报。

如需切换地图:点击带黑十字的绿色按钮放大地图;点击带横线的绿色按钮缩小地图;或者点击绿色箭头查看邻近地区的地图。


METAR-TAF: